createdAt,value
2019-04-12T00:00:03.513Z,6.66
2019-04-12T00:01:03.730Z,6.65
2019-04-12T00:02:03.606Z,6.59
2019-04-12T00:03:03.625Z,6.50
2019-04-12T00:04:03.666Z,6.47
2019-04-12T00:05:03.727Z,6.44
2019-04-12T00:06:03.781Z,6.41
2019-04-12T00:07:04.006Z,6.35
2019-04-12T00:08:03.845Z,6.33
2019-04-12T00:09:03.882Z,6.35
2019-04-12T00:10:03.945Z,6.35
2019-04-12T00:11:03.968Z,6.35
2019-04-12T00:12:04.012Z,6.28
2019-04-12T00:13:04.059Z,6.26
2019-04-12T00:14:04.101Z,6.26
2019-04-12T00:15:04.165Z,6.29
2019-04-12T00:16:04.191Z,6.22
2019-04-12T00:17:04.225Z,6.16
2019-04-12T00:18:04.267Z,6.10
2019-04-12T00:19:04.315Z,6.16
2019-04-12T00:20:04.481Z,6.07
2019-04-12T00:21:04.399Z,5.95
2019-04-12T00:22:04.446Z,5.93
2019-04-12T00:23:04.497Z,5.91
2019-04-12T00:24:04.528Z,5.89
2019-04-12T00:25:04.601Z,5.89
2019-04-12T00:26:04.634Z,5.77
2019-04-12T00:27:04.673Z,5.88
2019-04-12T00:28:04.701Z,5.89
2019-04-12T00:29:04.747Z,6.00
2019-04-12T00:30:04.788Z,6.11
2019-04-12T00:31:04.847Z,6.14
2019-04-12T00:32:04.885Z,6.11
2019-04-12T00:33:04.923Z,6.06
2019-04-12T00:34:04.974Z,6.16
2019-04-12T00:35:04.999Z,6.14
2019-04-12T00:36:05.067Z,6.13
2019-04-12T00:37:05.104Z,6.13
2019-04-12T00:38:05.130Z,6.28
2019-04-12T00:39:05.171Z,6.40
2019-04-12T00:40:05.218Z,6.30
2019-04-12T00:41:05.279Z,6.38
2019-04-12T00:42:05.304Z,6.33
2019-04-12T00:43:05.342Z,6.30
2019-04-12T00:44:05.386Z,6.35
2019-04-12T00:45:05.429Z,6.30
2019-04-12T00:46:06.265Z,6.32
2019-04-12T00:47:09.069Z,6.28
2019-04-12T00:48:05.558Z,6.32
2019-04-12T00:49:07.124Z,6.44
2019-04-12T00:50:05.648Z,6.56
2019-04-12T00:51:05.723Z,6.53
2019-04-12T00:52:05.731Z,6.61
2019-04-12T00:53:05.772Z,6.63
2019-04-12T00:54:05.816Z,6.62
2019-04-12T00:55:05.855Z,6.63
2019-04-12T00:56:05.934Z,6.62
2019-04-12T00:57:05.945Z,6.62
2019-04-12T00:58:06.004Z,6.61
2019-04-12T00:59:06.030Z,6.68
2019-04-12T01:00:06.091Z,6.66
2019-04-12T01:01:06.117Z,6.63
2019-04-12T01:02:06.179Z,6.56
2019-04-12T01:03:06.207Z,6.53
2019-04-12T01:04:06.252Z,6.53
2019-04-12T01:05:06.284Z,6.47
2019-04-12T01:06:06.328Z,6.40
2019-04-12T01:07:06.411Z,6.32
2019-04-12T01:08:06.412Z,6.36
2019-04-12T01:09:06.463Z,6.33
2019-04-12T01:10:06.498Z,6.29
2019-04-12T01:11:06.543Z,6.30
2019-04-12T01:12:06.605Z,6.29
2019-04-12T01:13:06.628Z,6.30
2019-04-12T01:14:06.682Z,6.25
2019-04-12T01:15:06.711Z,6.28
2019-04-12T01:16:06.753Z,6.30
2019-04-12T01:17:06.824Z,6.29
2019-04-12T01:18:06.857Z,6.32
2019-04-12T01:19:06.884Z,6.25
2019-04-12T01:20:06.923Z,6.21
2019-04-12T01:21:07.564Z,6.18
2019-04-12T01:22:08.904Z,6.19
2019-04-12T01:23:09.598Z,6.13
2019-04-12T01:24:08.171Z,5.88
2019-04-12T01:25:07.147Z,5.91
2019-04-12T01:26:07.189Z,5.82
2019-04-12T01:27:07.224Z,5.64
2019-04-12T01:28:07.287Z,5.66
2019-04-12T01:29:07.311Z,5.55
2019-04-12T01:30:07.351Z,5.46
2019-04-12T01:31:07.398Z,5.38
2019-04-12T01:32:07.450Z,5.34
2019-04-12T01:33:07.507Z,5.35
2019-04-12T01:34:07.523Z,5.27
2019-04-12T01:35:07.567Z,5.14
2019-04-12T01:36:07.606Z,5.19
2019-04-12T01:37:07.650Z,5.23
2019-04-12T01:38:07.721Z,5.16
2019-04-12T01:39:07.739Z,5.05
2019-04-12T01:40:07.780Z,5.09
2019-04-12T01:41:07.819Z,5.09
2019-04-12T01:42:07.861Z,5.02
2019-04-12T01:43:07.920Z,5.09
2019-04-12T01:44:07.974Z,5.01
2019-04-12T01:45:07.990Z,5.12
2019-04-12T01:46:08.035Z,5.14
2019-04-12T01:47:08.070Z,5.25
2019-04-12T01:48:08.166Z,5.34
2019-04-12T01:49:08.157Z,5.34
2019-04-12T01:50:08.201Z,5.34
2019-04-12T01:51:08.259Z,5.45
2019-04-12T01:52:08.291Z,5.48
2019-04-12T01:53:08.347Z,5.50
2019-04-12T01:54:08.390Z,5.50
2019-04-12T01:55:09.136Z,5.53
2019-04-12T01:56:08.460Z,5.50
2019-04-12T01:57:08.499Z,5.50
2019-04-12T01:58:08.536Z,5.53
2019-04-12T01:59:08.597Z,5.60
2019-04-12T02:00:08.628Z,5.67
2019-04-12T02:01:08.662Z,5.66
2019-04-12T02:02:08.714Z,5.68
2019-04-12T02:03:08.754Z,5.73
2019-04-12T02:04:08.813Z,5.70
2019-04-12T02:05:08.832Z,5.73
2019-04-12T02:06:08.882Z,5.60
2019-04-12T02:07:08.915Z,5.64
2019-04-12T02:08:08.957Z,5.67
2019-04-12T02:09:09.021Z,5.71
2019-04-12T02:10:09.039Z,5.68
2019-04-12T02:11:09.081Z,5.60
2019-04-12T02:12:09.124Z,5.59
2019-04-12T02:13:09.212Z,5.63
2019-04-12T02:14:09.230Z,5.59
2019-04-12T02:15:09.250Z,5.56
2019-04-12T02:16:09.293Z,5.56
2019-04-12T02:17:09.341Z,5.55
2019-04-12T02:18:09.377Z,5.66
2019-04-12T02:19:09.453Z,5.64
2019-04-12T02:20:09.462Z,5.67
2019-04-12T02:21:09.503Z,5.59
2019-04-12T02:22:09.547Z,5.60
2019-04-12T02:23:09.603Z,5.57
2019-04-12T02:24:09.649Z,5.56
2019-04-12T02:25:20.184Z,5.53
2019-04-12T02:26:09.728Z,5.53
2019-04-12T02:27:09.780Z,5.48
2019-04-12T02:28:09.799Z,5.55
2019-04-12T02:29:09.842Z,5.50
2019-04-12T02:30:09.915Z,5.43
2019-04-12T02:31:09.930Z,5.35
2019-04-12T02:32:09.969Z,5.37
2019-04-12T02:33:10.009Z,5.35
2019-04-12T02:34:10.055Z,5.34
2019-04-12T02:35:10.123Z,5.30
2019-04-12T02:36:10.137Z,5.30
2019-04-12T02:37:10.189Z,5.25
2019-04-12T02:38:10.225Z,5.31
2019-04-12T02:39:10.261Z,5.30
2019-04-12T02:40:10.329Z,5.27
2019-04-12T02:41:10.347Z,5.28
2019-04-12T02:42:10.391Z,5.20
2019-04-12T02:43:10.433Z,5.10
2019-04-12T02:44:10.485Z,4.99
2019-04-12T02:45:10.669Z,4.95
2019-04-12T02:46:10.568Z,4.98
2019-04-12T02:47:10.598Z,5.07
2019-04-12T02:48:10.640Z,5.10
2019-04-12T02:49:10.682Z,5.05
2019-04-12T02:50:10.744Z,5.02
2019-04-12T02:51:10.785Z,5.04
2019-04-12T02:52:10.844Z,4.99
2019-04-12T02:53:10.850Z,4.95
2019-04-12T02:54:10.891Z,4.94
2019-04-12T02:55:10.942Z,4.84
2019-04-12T02:56:10.997Z,4.86
2019-04-12T02:57:11.017Z,4.76
2019-04-12T02:58:11.062Z,4.84
2019-04-12T02:59:11.109Z,4.83
2019-04-12T03:00:11.140Z,4.72
2019-04-12T03:01:11.211Z,4.76
2019-04-12T03:02:11.223Z,4.75
2019-04-12T03:03:11.267Z,4.83
2019-04-12T03:04:11.315Z,4.75
2019-04-12T03:05:11.347Z,4.80
2019-04-12T03:06:11.417Z,4.83
2019-04-12T03:07:11.435Z,4.88
2019-04-12T03:08:11.476Z,4.76
2019-04-12T03:09:11.526Z,4.76
2019-04-12T03:10:11.568Z,4.73
2019-04-12T03:11:11.615Z,4.67
2019-04-12T03:12:11.639Z,4.69
2019-04-12T03:13:11.687Z,4.59
2019-04-12T03:14:11.723Z,4.62
2019-04-12T03:15:11.766Z,4.58
2019-04-12T03:16:11.840Z,4.51
2019-04-12T03:17:11.849Z,4.55
2019-04-12T03:18:11.891Z,4.52
2019-04-12T03:19:11.945Z,4.64
2019-04-12T03:20:11.976Z,4.61
2019-04-12T03:21:12.039Z,4.59
2019-04-12T03:22:12.077Z,4.62
2019-04-12T03:23:12.101Z,4.67
2019-04-12T03:24:12.152Z,4.62
2019-04-12T03:25:12.189Z,4.62
2019-04-12T03:26:12.228Z,4.67
2019-04-12T03:27:12.291Z,4.62
2019-04-12T03:28:12.305Z,4.64
2019-04-12T03:29:12.348Z,4.59
2019-04-12T03:30:12.389Z,4.69
2019-04-12T03:31:12.428Z,4.61
2019-04-12T03:32:12.494Z,4.70
2019-04-12T03:33:12.513Z,4.69
2019-04-12T03:34:12.567Z,4.69
2019-04-12T03:35:12.618Z,4.76
2019-04-12T03:36:12.638Z,4.73
2019-04-12T03:37:12.696Z,4.80
2019-04-12T03:38:12.722Z,4.72
2019-04-12T03:39:12.761Z,4.76
2019-04-12T03:40:12.804Z,4.64
2019-04-12T03:41:12.845Z,4.64
2019-04-12T03:42:12.911Z,4.70
2019-04-12T03:43:12.927Z,4.64
2019-04-12T03:44:12.968Z,4.62
2019-04-12T03:45:13.016Z,4.62
2019-04-12T03:46:13.054Z,4.62
2019-04-12T03:47:13.121Z,4.65
2019-04-12T03:48:13.156Z,4.44
2019-04-12T03:49:13.179Z,4.51
2019-04-12T03:50:13.220Z,4.51
2019-04-12T03:51:13.257Z,4.43
2019-04-12T03:52:13.327Z,4.43
2019-04-12T03:53:13.362Z,4.39
2019-04-12T03:54:13.384Z,4.50
2019-04-12T03:55:13.434Z,4.40
2019-04-12T03:56:13.467Z,4.46
2019-04-12T03:57:13.509Z,4.44
2019-04-12T03:58:13.564Z,4.37
2019-04-12T03:59:13.590Z,4.47
2019-04-12T04:00:13.633Z,4.50
2019-04-12T04:01:13.674Z,4.52
2019-04-12T04:02:13.735Z,4.44
2019-04-12T04:03:13.777Z,4.46
2019-04-12T04:04:13.798Z,4.46
2019-04-12T04:05:13.839Z,4.57
2019-04-12T04:06:13.883Z,4.47
2019-04-12T04:07:13.932Z,4.51
2019-04-12T04:08:14.022Z,4.55
2019-04-12T04:09:14.038Z,4.46
2019-04-12T04:10:14.052Z,4.46
2019-04-12T04:11:14.083Z,4.44
2019-04-12T04:12:14.128Z,4.44
2019-04-12T04:13:14.169Z,4.39
2019-04-12T04:14:14.250Z,4.44
2019-04-12T04:15:14.253Z,4.42
2019-04-12T04:16:14.300Z,4.40
2019-04-12T04:17:14.332Z,4.39
2019-04-12T04:18:14.401Z,4.22
2019-04-12T04:19:14.447Z,4.32
2019-04-12T04:20:14.459Z,4.33
2019-04-12T04:21:14.500Z,4.33
2019-04-12T04:22:14.544Z,4.36
2019-04-12T04:23:14.593Z,4.32
2019-04-12T04:24:14.646Z,4.33
2019-04-12T04:25:14.666Z,4.42
2019-04-12T04:26:23.018Z,4.25
2019-04-12T04:27:14.753Z,4.28
2019-04-12T04:28:14.799Z,4.25
2019-04-12T04:29:14.867Z,4.28
2019-04-12T04:30:14.914Z,4.32
2019-04-12T04:31:14.933Z,4.24
2019-04-12T04:32:14.961Z,4.25
2019-04-12T04:33:15.005Z,4.22
2019-04-12T04:34:15.056Z,4.18
2019-04-12T04:35:15.087Z,4.25
2019-04-12T04:36:15.120Z,4.26
2019-04-12T04:37:15.156Z,4.18
2019-04-12T04:38:15.203Z,4.03
2019-04-12T04:39:15.297Z,4.22
2019-04-12T04:40:15.286Z,4.10
2019-04-12T04:41:15.332Z,4.03
2019-04-12T04:42:15.373Z,4.06
2019-04-12T04:43:15.403Z,4.04
2019-04-12T04:44:17.892Z,4.03
2019-04-12T04:45:15.507Z,4.07
2019-04-12T04:46:15.531Z,4.07
2019-04-12T04:47:15.596Z,4.01
2019-04-12T04:48:15.614Z,4.03
2019-04-12T04:49:15.661Z,4.01
2019-04-12T04:50:15.718Z,4.03
2019-04-12T04:51:15.736Z,4.04
2019-04-12T04:52:16.606Z,3.90
2019-04-12T04:53:15.878Z,3.92
2019-04-12T04:54:15.870Z,3.92
2019-04-12T04:55:15.919Z,4.01
2019-04-12T04:56:15.939Z,3.94
2019-04-12T04:57:15.981Z,3.90
2019-04-12T04:58:16.028Z,3.89
2019-04-12T04:59:16.070Z,3.79
2019-04-12T05:00:16.129Z,3.86
2019-04-12T05:01:16.165Z,3.80
2019-04-12T05:02:16.196Z,3.79
2019-04-12T05:03:16.228Z,3.75
2019-04-12T05:04:16.272Z,3.70
2019-04-12T05:05:16.333Z,3.67
2019-04-12T05:06:16.357Z,3.58
2019-04-12T05:07:16.398Z,3.60
2019-04-12T05:08:16.439Z,3.52
2019-04-12T05:09:16.489Z,3.52
2019-04-12T05:10:16.531Z,3.46
2019-04-12T05:11:16.554Z,3.42
2019-04-12T05:12:16.599Z,3.42
2019-04-12T05:13:16.639Z,3.42
2019-04-12T05:14:16.680Z,3.39
2019-04-12T05:15:16.739Z,3.39
2019-04-12T05:16:16.786Z,3.34
2019-04-12T05:17:16.825Z,3.34
2019-04-12T05:18:16.858Z,3.47
2019-04-12T05:19:16.886Z,3.39
2019-04-12T05:20:16.930Z,3.39
2019-04-12T05:21:17.042Z,3.40
2019-04-12T05:22:17.014Z,3.24
2019-04-12T05:23:17.062Z,3.30
2019-04-12T05:24:17.098Z,3.34
2019-04-12T05:25:17.138Z,3.30
2019-04-12T05:26:17.199Z,3.30
2019-04-12T05:27:17.215Z,3.33
2019-04-12T05:28:17.252Z,3.30
2019-04-12T05:29:17.298Z,3.28
2019-04-12T05:30:17.340Z,3.23
2019-04-12T05:31:17.393Z,3.36
2019-04-12T05:32:17.415Z,3.28
2019-04-12T05:33:17.455Z,3.27
2019-04-12T05:34:17.492Z,3.20
2019-04-12T05:35:17.554Z,3.16
2019-04-12T05:36:17.598Z,3.25
2019-04-12T05:37:17.618Z,3.20
2019-04-12T05:38:17.657Z,3.30
2019-04-12T05:39:17.715Z,3.23
2019-04-12T05:40:17.750Z,3.34
2019-04-12T05:41:17.804Z,3.24
2019-04-12T05:42:17.854Z,3.25
2019-04-12T05:43:17.868Z,3.28
2019-04-12T05:44:17.906Z,3.39
2019-04-12T05:45:17.951Z,3.31
2019-04-12T05:46:18.031Z,3.39
2019-04-12T05:47:18.023Z,3.34
2019-04-12T05:48:18.073Z,3.33
2019-04-12T05:49:18.156Z,3.42
2019-04-12T05:50:18.146Z,3.36
2019-04-12T05:51:18.212Z,3.31
2019-04-12T05:52:20.522Z,3.47
2019-04-12T05:53:18.293Z,3.39
2019-04-12T05:54:18.315Z,3.42
2019-04-12T05:55:18.353Z,3.33
2019-04-12T05:56:18.434Z,3.39
2019-04-12T05:57:18.437Z,3.40
2019-04-12T05:58:18.476Z,3.42
2019-04-12T05:59:18.513Z,3.31
2019-04-12T06:00:18.556Z,3.42
2019-04-12T06:01:18.622Z,3.50
2019-04-12T06:02:18.656Z,3.49
2019-04-12T06:03:18.677Z,3.50
2019-04-12T06:04:18.719Z,3.58
2019-04-12T06:05:18.763Z,3.53
2019-04-12T06:06:18.836Z,3.54
2019-04-12T06:07:18.850Z,3.50
2019-04-12T06:08:18.888Z,3.57
2019-04-12T06:09:18.923Z,3.70
2019-04-12T06:10:18.982Z,3.75
2019-04-12T06:11:19.025Z,3.75
2019-04-12T06:12:19.149Z,3.76
2019-04-12T06:13:19.095Z,3.80
2019-04-12T06:14:19.137Z,3.79
2019-04-12T06:15:19.167Z,3.88
2019-04-12T06:16:19.208Z,3.76
2019-04-12T06:17:19.289Z,3.76
2019-04-12T06:18:19.389Z,3.83
2019-04-12T06:19:19.473Z,3.90
2019-04-12T06:20:19.401Z,3.80
2019-04-12T06:21:19.410Z,3.79
2019-04-12T06:22:19.485Z,3.96
2019-04-12T06:23:19.495Z,3.94
2019-04-12T06:24:19.540Z,4.07
2019-04-12T06:25:19.585Z,3.96
2019-04-12T06:26:19.629Z,4.00
2019-04-12T06:27:19.690Z,4.06
2019-04-12T06:28:19.702Z,4.15
2019-04-12T06:29:19.749Z,4.19
2019-04-12T06:30:19.790Z,4.19
2019-04-12T06:31:19.832Z,4.28
2019-04-12T06:32:19.889Z,4.36
2019-04-12T06:33:19.906Z,4.43
2019-04-12T06:34:19.952Z,4.37
2019-04-12T06:35:19.989Z,4.36
2019-04-12T06:36:20.034Z,4.52
2019-04-12T06:37:20.091Z,4.50
2019-04-12T06:38:20.117Z,4.65
2019-04-12T06:39:20.184Z,4.64
2019-04-12T06:40:20.197Z,4.64
2019-04-12T06:41:20.246Z,4.67
2019-04-12T06:42:20.280Z,4.79
2019-04-12T06:43:20.342Z,4.83
2019-04-12T06:44:20.364Z,4.83
2019-04-12T06:45:20.445Z,5.05
2019-04-12T06:46:20.458Z,5.10
2019-04-12T06:47:20.488Z,5.25
2019-04-12T06:48:20.570Z,5.60
2019-04-12T06:49:20.577Z,5.82
2019-04-12T06:50:20.612Z,5.95
2019-04-12T06:51:20.663Z,5.88
2019-04-12T06:52:20.716Z,5.93
2019-04-12T06:53:20.757Z,6.00
2019-04-12T06:54:20.782Z,6.10
2019-04-12T06:55:20.823Z,6.29
2019-04-12T06:56:20.867Z,6.35
2019-04-12T06:57:22.993Z,6.32
2019-04-12T06:58:20.971Z,6.32
2019-04-12T06:59:21.018Z,6.19
2019-04-12T07:00:21.041Z,6.21
2019-04-12T07:01:21.083Z,6.40
2019-04-12T07:02:21.122Z,6.71
2019-04-12T07:03:21.200Z,7.13
2019-04-12T07:04:21.210Z,7.22
2019-04-12T07:05:21.272Z,7.29
2019-04-12T07:06:21.293Z,7.41
2019-04-12T07:07:21.336Z,7.63
2019-04-12T07:08:21.412Z,8.15
2019-04-12T07:09:21.455Z,8.30
2019-04-12T07:10:21.467Z,8.57
2019-04-12T07:11:21.509Z,8.94
2019-04-12T07:12:21.569Z,9.18
2019-04-12T07:13:21.604Z,9.32
2019-04-12T07:14:21.675Z,9.21
2019-04-12T07:15:21.681Z,9.21
2019-04-12T07:16:21.790Z,9.21
2019-04-12T07:17:21.775Z,9.16
2019-04-12T07:18:21.819Z,9.35
2019-04-12T07:19:21.876Z,9.38
2019-04-12T07:20:21.906Z,9.73
2019-04-12T07:21:21.950Z,9.88
2019-04-12T07:22:21.999Z,9.91
2019-04-12T07:23:22.065Z,9.99
2019-04-12T07:24:22.119Z,10.12
2019-04-12T07:25:22.133Z,10.21
2019-04-12T07:26:22.194Z,10.14
2019-04-12T07:27:33.916Z,10.09
2019-04-12T07:28:22.264Z,9.97
2019-04-12T07:29:22.319Z,9.81
2019-04-12T07:30:22.373Z,9.48
2019-04-12T07:31:22.400Z,9.30
2019-04-12T07:32:22.448Z,9.38
2019-04-12T07:33:22.503Z,9.53
2019-04-12T07:34:22.556Z,9.96
2019-04-12T07:35:22.604Z,9.88
2019-04-12T07:36:22.630Z,9.63
2019-04-12T07:37:22.682Z,9.58
2019-04-12T07:38:22.772Z,9.66
2019-04-12T07:39:22.774Z,9.66
2019-04-12T07:40:22.832Z,9.78
2019-04-12T07:41:22.858Z,10.06
2019-04-12T07:42:22.908Z,10.03
2019-04-12T07:43:22.952Z,10.39
2019-04-12T07:44:23.005Z,10.18
2019-04-12T07:45:23.070Z,10.26
2019-04-12T07:46:23.279Z,10.66
2019-04-12T07:47:23.135Z,10.91
2019-04-12T07:48:23.179Z,11.25
2019-04-12T07:49:24.988Z,11.50
2019-04-12T07:50:23.269Z,11.67
2019-04-12T07:51:23.335Z,11.71
2019-04-12T07:52:23.368Z,11.90
2019-04-12T07:53:23.475Z,11.89
2019-04-12T07:54:23.454Z,11.75
2019-04-12T07:55:23.505Z,11.67
2019-04-12T07:56:23.571Z,11.46
2019-04-12T07:57:23.596Z,11.53
2019-04-12T07:58:23.656Z,11.65
2019-04-12T07:59:23.691Z,11.64
2019-04-12T08:00:23.800Z,11.46
2019-04-12T08:01:23.810Z,11.44
2019-04-12T08:02:23.843Z,11.32
2019-04-12T08:03:23.880Z,11.27
2019-04-12T08:04:23.927Z,11.36
2019-04-12T08:05:23.972Z,11.36
2019-04-12T08:06:24.047Z,11.65
2019-04-12T08:07:24.114Z,11.62
2019-04-12T08:08:24.118Z,11.29
2019-04-12T08:09:24.167Z,11.35
2019-04-12T08:10:24.224Z,11.39
2019-04-12T08:11:24.281Z,11.35
2019-04-12T08:12:24.339Z,11.35
2019-04-12T08:13:24.360Z,11.39
2019-04-12T08:14:24.418Z,11.17
2019-04-12T08:15:24.455Z,11.50
2019-04-12T08:16:24.496Z,11.89
2019-04-12T08:17:24.572Z,12.26
2019-04-12T08:18:24.614Z,12.46
2019-04-12T08:19:24.648Z,12.63
2019-04-12T08:20:24.699Z,12.34
2019-04-12T08:21:24.751Z,11.97
2019-04-12T08:22:24.794Z,11.77
2019-04-12T08:23:24.838Z,11.86
2019-04-12T08:24:24.891Z,11.74
2019-04-12T08:25:24.942Z,11.94
2019-04-12T08:26:24.996Z,11.99
2019-04-12T08:27:25.025Z,11.83
2019-04-12T08:28:25.072Z,11.54
2019-04-12T08:29:25.123Z,11.47
2019-04-12T08:30:25.175Z,11.27
2019-04-12T08:31:25.240Z,10.83
2019-04-12T08:32:25.291Z,10.77
2019-04-12T08:33:25.313Z,10.73
2019-04-12T08:34:25.365Z,10.65
2019-04-12T08:35:25.413Z,10.62
2019-04-12T08:36:26.181Z,10.62
2019-04-12T08:37:25.540Z,10.32
2019-04-12T08:38:25.562Z,10.44
2019-04-12T08:39:25.607Z,10.98
2019-04-12T08:40:25.661Z,11.53
2019-04-12T08:41:25.705Z,12.08
2019-04-12T08:42:25.777Z,12.39
2019-04-12T08:43:25.791Z,12.27
2019-04-12T08:44:25.847Z,11.68
2019-04-12T08:45:25.901Z,11.44
2019-04-12T08:46:25.934Z,11.02
2019-04-12T08:47:26.055Z,10.04
2019-04-12T08:48:26.030Z,9.79
2019-04-12T08:49:26.081Z,9.79
2019-04-12T08:50:26.154Z,10.03
2019-04-12T08:51:26.201Z,9.66
2019-04-12T08:52:26.299Z,9.12
2019-04-12T08:53:26.301Z,9.46
2019-04-12T08:54:26.365Z,10.04
2019-04-12T08:55:26.418Z,10.66
2019-04-12T08:56:26.441Z,11.16
2019-04-12T08:57:26.515Z,11.57
2019-04-12T08:58:26.552Z,11.75
2019-04-12T08:59:26.571Z,11.75
2019-04-12T09:00:26.618Z,12.06
2019-04-12T09:01:26.716Z,11.34
2019-04-12T09:02:26.786Z,11.46
2019-04-12T09:03:26.793Z,11.68
2019-04-12T09:04:26.808Z,11.97
2019-04-12T09:05:32.470Z,12.23
2019-04-12T09:06:26.918Z,11.29
2019-04-12T09:07:27.032Z,11.13
2019-04-12T09:08:27.014Z,10.58
2019-04-12T09:09:27.102Z,10.37
2019-04-12T09:10:27.182Z,11.11
2019-04-12T09:11:27.142Z,10.80
2019-04-12T09:12:27.291Z,10.78
2019-04-12T09:13:27.262Z,11.31
2019-04-12T09:14:27.345Z,11.94
2019-04-12T09:15:27.372Z,12.52
2019-04-12T09:16:27.396Z,11.49
2019-04-12T09:17:27.530Z,10.66
2019-04-12T09:18:30.446Z,10.76
2019-04-12T09:19:27.598Z,11.31
2019-04-12T09:20:27.714Z,11.86
2019-04-12T09:21:27.634Z,12.42
2019-04-12T09:22:27.705Z,10.84
2019-04-12T09:23:27.749Z,9.96
2019-04-12T09:24:27.893Z,10.25
2019-04-12T09:25:27.928Z,11.07
2019-04-12T09:26:27.905Z,11.68
2019-04-12T09:27:28.035Z,12.29
2019-04-12T09:28:28.006Z,12.42
2019-04-12T09:29:28.150Z,11.57
2019-04-12T09:30:28.095Z,11.85
2019-04-12T09:31:28.149Z,10.83
2019-04-12T09:32:28.169Z,9.76
2019-04-12T09:33:28.254Z,9.32
2019-04-12T09:34:28.268Z,8.93
2019-04-12T09:35:28.315Z,8.62
2019-04-12T09:36:28.472Z,8.88
2019-04-12T09:37:28.403Z,9.16
2019-04-12T09:38:28.496Z,9.38
2019-04-12T09:39:28.506Z,9.34
2019-04-12T09:40:28.552Z,9.32
2019-04-12T09:41:28.602Z,9.91
2019-04-12T09:42:28.649Z,10.47
2019-04-12T09:43:28.785Z,10.88
2019-04-12T09:44:28.769Z,11.32
2019-04-12T09:45:28.800Z,11.65
2019-04-12T09:46:28.843Z,11.93
2019-04-12T09:47:28.891Z,11.31
2019-04-12T09:48:28.943Z,10.34
2019-04-12T09:49:29.018Z,10.68
2019-04-12T09:50:29.046Z,11.13
2019-04-12T09:51:29.098Z,11.43
2019-04-12T09:52:29.137Z,11.47
2019-04-12T09:53:29.190Z,11.59
2019-04-12T09:54:29.250Z,11.85
2019-04-12T09:55:29.283Z,11.75
2019-04-12T09:56:29.356Z,11.94
2019-04-12T09:57:29.384Z,11.19
2019-04-12T09:58:37.234Z,11.17
2019-04-12T09:59:29.486Z,10.99
2019-04-12T10:00:29.535Z,10.80
2019-04-12T10:01:32.234Z,10.33
2019-04-12T10:02:29.614Z,10.53
2019-04-12T10:03:29.670Z,10.84
2019-04-12T10:04:29.729Z,11.11
2019-04-12T10:05:29.807Z,11.13
2019-04-12T10:06:29.816Z,11.29
2019-04-12T10:07:29.858Z,10.78
2019-04-12T10:08:29.902Z,10.95
2019-04-12T10:09:29.983Z,10.63
2019-04-12T10:10:30.048Z,10.55
2019-04-12T10:11:30.051Z,10.80
2019-04-12T10:12:30.100Z,11.25
2019-04-12T10:13:30.161Z,10.70
2019-04-12T10:14:30.206Z,9.81
2019-04-12T10:15:30.290Z,9.53
2019-04-12T10:16:30.311Z,9.48
2019-04-12T10:17:30.343Z,9.52
2019-04-12T10:18:30.398Z,9.58
2019-04-12T10:19:30.445Z,9.89
2019-04-12T10:20:30.518Z,10.51
2019-04-12T10:21:30.541Z,10.46
2019-04-12T10:22:30.583Z,9.97
2019-04-12T10:23:30.636Z,9.50
2019-04-12T10:24:30.684Z,9.09
2019-04-12T10:25:30.746Z,8.53
2019-04-12T10:26:30.774Z,8.62
2019-04-12T10:27:30.839Z,8.84
2019-04-12T10:28:30.872Z,8.93
2019-04-12T10:29:30.919Z,8.97
2019-04-12T10:30:30.991Z,9.46
2019-04-12T10:31:31.167Z,9.49
2019-04-12T10:32:31.061Z,9.48
2019-04-12T10:33:31.110Z,9.32
2019-04-12T10:34:31.164Z,9.34
2019-04-12T10:35:31.226Z,9.63
2019-04-12T10:36:31.257Z,9.96
2019-04-12T10:37:31.297Z,10.55
2019-04-12T10:38:31.359Z,10.98
2019-04-12T10:39:31.391Z,11.28
2019-04-12T10:40:31.469Z,11.03
2019-04-12T10:41:31.485Z,11.09
2019-04-12T10:42:31.538Z,11.44
2019-04-12T10:43:31.586Z,11.75
2019-04-12T10:44:31.632Z,10.88
2019-04-12T10:45:31.814Z,10.40
2019-04-12T10:46:31.730Z,9.99
2019-04-12T10:47:31.783Z,10.10
2019-04-12T10:48:31.840Z,10.55
2019-04-12T10:49:31.889Z,11.16
2019-04-12T10:50:31.946Z,11.50
2019-04-12T10:51:32.001Z,11.21
2019-04-12T10:52:32.019Z,10.99
2019-04-12T10:53:32.067Z,10.40
2019-04-12T10:54:34.073Z,10.06
2019-04-12T10:55:32.180Z,9.89
2019-04-12T10:56:32.249Z,9.81
2019-04-12T10:57:32.267Z,9.73
2019-04-12T10:58:32.321Z,10.09
2019-04-12T10:59:32.371Z,10.63
2019-04-12T11:00:32.431Z,10.19
2019-04-12T11:01:32.480Z,10.09
2019-04-12T11:02:32.506Z,9.88
2019-04-12T11:03:32.562Z,9.79
2019-04-12T11:04:32.606Z,9.97
2019-04-12T11:05:32.650Z,10.58
2019-04-12T11:06:32.735Z,10.76
2019-04-12T11:07:32.743Z,10.60
2019-04-12T11:08:32.825Z,10.52
2019-04-12T11:09:32.844Z,10.28
2019-04-12T11:10:32.891Z,10.37
2019-04-12T11:11:32.974Z,10.32
2019-04-12T11:12:32.991Z,10.71
2019-04-12T11:13:33.034Z,10.95
2019-04-12T11:14:33.090Z,11.46
2019-04-12T11:15:33.138Z,11.68
2019-04-12T11:16:33.206Z,12.29
2019-04-12T11:17:33.267Z,12.46
2019-04-12T11:18:33.279Z,11.83
2019-04-12T11:19:33.340Z,11.57
2019-04-12T11:20:33.378Z,11.82
2019-04-12T11:21:33.428Z,12.33
2019-04-12T11:22:33.496Z,12.78
2019-04-12T11:23:33.520Z,12.46
2019-04-12T11:24:33.572Z,12.63
2019-04-12T11:25:33.619Z,12.59
2019-04-12T11:26:33.680Z,12.95
2019-04-12T11:27:33.735Z,12.92
2019-04-12T11:28:33.768Z,13.07
2019-04-12T11:29:33.825Z,13.37
2019-04-12T11:30:33.869Z,13.77
2019-04-12T11:31:33.919Z,14.01
2019-04-12T11:32:33.990Z,13.84
2019-04-12T11:33:34.047Z,13.25
2019-04-12T11:34:34.086Z,13.15
2019-04-12T11:35:34.124Z,12.51
2019-04-12T11:36:34.168Z,12.63
2019-04-12T11:37:34.246Z,12.81
2019-04-12T11:38:34.290Z,12.93
2019-04-12T11:39:34.323Z,13.15
2019-04-12T11:40:34.411Z,12.64
2019-04-12T11:41:34.418Z,12.84
2019-04-12T11:42:34.494Z,12.95
2019-04-12T11:43:34.525Z,13.46
2019-04-12T11:44:34.588Z,13.56
2019-04-12T11:45:34.646Z,13.47
2019-04-12T11:46:37.548Z,12.49
2019-04-12T11:47:34.770Z,12.64
2019-04-12T11:48:34.808Z,13.06
2019-04-12T11:49:34.834Z,13.30
2019-04-12T11:50:34.886Z,13.76
2019-04-12T11:51:34.926Z,13.58
2019-04-12T11:52:35.000Z,13.52
2019-04-12T11:53:35.055Z,13.79
2019-04-12T11:54:35.083Z,13.00
2019-04-12T11:55:35.131Z,13.18
2019-04-12T11:56:35.184Z,12.97
2019-04-12T11:57:37.658Z,12.95
2019-04-12T11:58:47.596Z,12.13
2019-04-12T11:59:35.338Z,12.59
2019-04-12T12:00:35.385Z,12.42
2019-04-12T12:01:35.450Z,12.11
2019-04-12T12:02:35.497Z,12.06
2019-04-12T12:03:35.557Z,11.56
2019-04-12T12:04:35.611Z,11.34
2019-04-12T12:05:35.760Z,11.87
2019-04-12T12:06:35.693Z,12.57
2019-04-12T12:07:35.756Z,12.95
2019-04-12T12:08:35.831Z,13.32
2019-04-12T12:09:35.844Z,13.55
2019-04-12T12:10:35.907Z,13.80
2019-04-12T12:11:35.947Z,14.16
2019-04-12T12:12:36.031Z,14.54
2019-04-12T12:13:36.081Z,14.54
2019-04-12T12:14:36.107Z,13.41
2019-04-12T12:15:36.151Z,12.99
2019-04-12T12:16:36.212Z,12.67
2019-04-12T12:17:36.265Z,12.41
2019-04-12T12:18:36.329Z,12.09
2019-04-12T12:19:36.348Z,12.39
2019-04-12T12:20:36.406Z,12.39
2019-04-12T12:21:36.457Z,13.04
2019-04-12T12:22:36.514Z,12.16
2019-04-12T12:23:36.587Z,12.26
2019-04-12T12:24:36.607Z,12.13
2019-04-12T12:25:36.692Z,12.39
2019-04-12T12:26:36.706Z,12.54
2019-04-12T12:27:36.761Z,12.78
2019-04-12T12:28:36.829Z,13.27
2019-04-12T12:29:42.679Z,12.99
2019-04-12T12:30:36.911Z,12.67
2019-04-12T12:31:36.962Z,12.81
2019-04-12T12:32:37.012Z,12.85
2019-04-12T12:33:37.072Z,13.03
2019-04-12T12:34:37.142Z,12.45
2019-04-12T12:35:37.171Z,12.13
2019-04-12T12:36:37.226Z,12.29
2019-04-12T12:37:37.295Z,12.57
2019-04-12T12:38:37.321Z,13.25
2019-04-12T12:39:37.486Z,12.81
2019-04-12T12:40:37.421Z,13.33
2019-04-12T12:41:37.493Z,13.89
2019-04-12T12:42:37.534Z,14.43
2019-04-12T12:43:37.587Z,14.81
2019-04-12T12:44:37.685Z,14.91
2019-04-12T12:45:37.685Z,14.88
2019-04-12T12:46:37.746Z,14.95
2019-04-12T12:47:37.785Z,15.19
2019-04-12T12:48:37.850Z,15.52
2019-04-12T12:49:37.917Z,14.65
2019-04-12T12:50:37.965Z,13.51
2019-04-12T12:51:37.993Z,13.71
2019-04-12T12:52:38.052Z,13.24
2019-04-12T12:53:38.095Z,13.21
2019-04-12T12:54:38.183Z,13.71
2019-04-12T12:55:38.240Z,14.24
2019-04-12T12:56:38.263Z,14.56
2019-04-12T12:57:38.420Z,14.90
2019-04-12T12:58:38.359Z,15.17
2019-04-12T12:59:38.447Z,14.95
2019-04-12T13:00:38.486Z,14.67
2019-04-12T13:01:38.519Z,14.74
2019-04-12T13:02:38.579Z,15.02
2019-04-12T13:03:38.617Z,15.24
2019-04-12T13:04:38.790Z,15.51
2019-04-12T13:05:38.724Z,15.60
2019-04-12T13:06:38.798Z,15.45
2019-04-12T13:07:38.845Z,15.33
2019-04-12T13:08:38.882Z,15.48